sensor_id;sensor_type;location;lat;lon;timestamp;temperature;humidity
31499;DHT22;18115;52.486;13.386;2023-02-11T00:00:59;2.20;99.90
31499;DHT22;18115;52.486;13.386;2023-02-11T00:03:30;2.20;99.90
31499;DHT22;18115;52.486;13.386;2023-02-11T00:06:00;2.30;99.90
31499;DHT22;18115;52.486;13.386;2023-02-11T00:08:26;2.20;99.90
31499;DHT22;18115;52.486;13.386;2023-02-11T00:10:53;2.30;99.90
31499;DHT22;18115;52.486;13.386;2023-02-11T00:13:21;2.20;99.90
31499;DHT22;18115;52.486;13.386;2023-02-11T00:15:46;2.20;99.90
31499;DHT22;18115;52.486;13.386;2023-02-11T00:18:12;2.20;99.90
31499;DHT22;18115;52.486;13.386;2023-02-11T00:20:38;2.50;99.90
31499;DHT22;18115;52.486;13.386;2023-02-11T00:23:04;2.20;99.90
31499;DHT22;18115;52.486;13.386;2023-02-11T00:25:30;2.20;99.90
31499;DHT22;18115;52.486;13.386;2023-02-11T00:27:56;2.20;99.90
31499;DHT22;18115;52.486;13.386;2023-02-11T00:30:22;3.20;99.90
31499;DHT22;18115;52.486;13.386;2023-02-11T00:32:47;2.30;99.90
31499;DHT22;18115;52.486;13.386;2023-02-11T00:35:16;2.30;99.90
31499;DHT22;18115;52.486;13.386;2023-02-11T00:37:42;2.40;99.90
31499;DHT22;18115;52.486;13.386;2023-02-11T00:40:07;3.40;99.90
31499;DHT22;18115;52.486;13.386;2023-02-11T00:42:33;2.50;99.90
31499;DHT22;18115;52.486;13.386;2023-02-11T00:45:02;2.50;99.90
31499;DHT22;18115;52.486;13.386;2023-02-11T00:47:28;2.50;99.90
31499;DHT22;18115;52.486;13.386;2023-02-11T00:49:54;3.30;99.90
31499;DHT22;18115;52.486;13.386;2023-02-11T00:52:19;2.50;99.90
31499;DHT22;18115;52.486;13.386;2023-02-11T00:54:45;2.60;99.90
31499;DHT22;18115;52.486;13.386;2023-02-11T00:57:11;2.80;99.90
31499;DHT22;18115;52.486;13.386;2023-02-11T00:59:36;2.60;99.90
31499;DHT22;18115;52.486;13.386;2023-02-11T01:02:02;2.80;99.90
31499;DHT22;18115;52.486;13.386;2023-02-11T01:04:28;2.70;99.90
31499;DHT22;18115;52.486;13.386;2023-02-11T01:06:53;2.70;99.90
31499;DHT22;18115;52.486;13.386;2023-02-11T01:09:19;3.00;99.90
31499;DHT22;18115;52.486;13.386;2023-02-11T01:11:46;2.80;99.90
31499;DHT22;18115;52.486;13.386;2023-02-11T01:14:12;2.80;99.90
31499;DHT22;18115;52.486;13.386;2023-02-11T01:16:37;2.90;99.90
31499;DHT22;18115;52.486;13.386;2023-02-11T01:19:03;2.80;99.90
31499;DHT22;18115;52.486;13.386;2023-02-11T01:21:28;2.90;99.90
31499;DHT22;18115;52.486;13.386;2023-02-11T01:23:54;2.90;99.90
31499;DHT22;18115;52.486;13.386;2023-02-11T01:26:20;2.90;99.90
31499;DHT22;18115;52.486;13.386;2023-02-11T01:28:45;3.30;99.90
31499;DHT22;18115;52.486;13.386;2023-02-11T01:31:11;2.90;99.90
31499;DHT22;18115;52.486;13.386;2023-02-11T01:33:37;2.90;99.90
31499;DHT22;18115;52.486;13.386;2023-02-11T01:36:04;3.20;99.90
31499;DHT22;18115;52.486;13.386;2023-02-11T01:38:30;2.90;99.90
31499;DHT22;18115;52.486;13.386;2023-02-11T01:41:02;2.90;99.90
31499;DHT22;18115;52.486;13.386;2023-02-11T01:43:38;2.90;99.90
31499;DHT22;18115;52.486;13.386;2023-02-11T01:46:35;2.90;99.90
31499;DHT22;18115;52.486;13.386;2023-02-11T01:49:13;3.00;99.90
31499;DHT22;18115;52.486;13.386;2023-02-11T01:51:53;3.00;99.90
31499;DHT22;18115;52.486;13.386;2023-02-11T01:54:22;3.10;99.90
31499;DHT22;18115;52.486;13.386;2023-02-11T01:57:11;3.10;99.90
31499;DHT22;18115;52.486;13.386;2023-02-11T02:02:26;3.20;99.90
31499;DHT22;18115;52.486;13.386;2023-02-11T02:10:56;3.30;99.90
31499;DHT22;18115;52.486;13.386;2023-02-11T02:13:26;3.40;99.90
31499;DHT22;18115;52.486;13.386;2023-02-11T02:15:53;3.30;99.90
31499;DHT22;18115;52.486;13.386;2023-02-11T02:30:28;3.40;99.90
31499;DHT22;18115;52.486;13.386;2023-02-11T02:38:55;3.50;99.90
31499;DHT22;18115;52.486;13.386;2023-02-11T02:41:33;3.60;99.90
31499;DHT22;18115;52.486;13.386;2023-02-11T02:44:00;3.60;99.90
31499;DHT22;18115;52.486;13.386;2023-02-11T02:46:31;3.70;99.90
31499;DHT22;18115;52.486;13.386;2023-02-11T02:48:58;3.70;99.90
31499;DHT22;18115;52.486;13.386;2023-02-11T02:59:36;3.80;99.90
31499;DHT22;18115;52.486;13.386;2023-02-11T03:07:44;3.80;99.90
31499;DHT22;18115;52.486;13.386;2023-02-11T03:10:20;3.80;99.90
31499;DHT22;18115;52.486;13.386;2023-02-11T03:12:47;3.80;99.90
31499;DHT22;18115;52.486;13.386;2023-02-11T03:15:16;3.90;99.90
31499;DHT22;18115;52.486;13.386;2023-02-11T03:17:47;4.60;99.90
31499;DHT22;18115;52.486;13.386;2023-02-11T03:20:16;3.90;99.90
31499;DHT22;18115;52.486;13.386;2023-02-11T03:22:49;3.80;99.90
31499;DHT22;18115;52.486;13.386;2023-02-11T03:25:18;3.90;99.90
31499;DHT22;18115;52.486;13.386;2023-02-11T03:27:51;4.70;99.90
31499;DHT22;18115;52.486;13.386;2023-02-11T03:30:26;4.00;99.90
31499;DHT22;18115;52.486;13.386;2023-02-11T03:32:59;3.90;99.90
31499;DHT22;18115;52.486;13.386;2023-02-11T03:35:31;3.90;99.90
31499;DHT22;18115;52.486;13.386;2023-02-11T03:38:21;3.90;99.90
31499;DHT22;18115;52.486;13.386;2023-02-11T03:40:49;3.90;99.90
31499;DHT22;18115;52.486;13.386;2023-02-11T03:43:21;3.90;99.90
31499;DHT22;18115;52.486;13.386;2023-02-11T03:45:50;4.00;99.90
31499;DHT22;18115;52.486;13.386;2023-02-11T03:48:23;4.00;99.90
31499;DHT22;18115;52.486;13.386;2023-02-11T03:50:51;4.00;99.90
31499;DHT22;18115;52.486;13.386;2023-02-11T03:53:18;4.00;99.90
31499;DHT22;18115;52.486;13.386;2023-02-11T03:55:46;4.10;99.90
31499;DHT22;18115;52.486;13.386;2023-02-11T03:58:12;4.10;99.90
31499;DHT22;18115;52.486;13.386;2023-02-11T04:00:40;4.00;99.90
31499;DHT22;18115;52.486;13.386;2023-02-11T04:03:07;4.60;99.90
31499;DHT22;18115;52.486;13.386;2023-02-11T04:05:33;4.00;99.90
31499;DHT22;18115;52.486;13.386;2023-02-11T04:07:59;4.00;99.90
31499;DHT22;18115;52.486;13.386;2023-02-11T04:10:25;4.00;99.90
31499;DHT22;18115;52.486;13.386;2023-02-11T04:12:50;3.90;99.90
31499;DHT22;18115;52.486;13.386;2023-02-11T04:15:16;4.00;99.90
31499;DHT22;18115;52.486;13.386;2023-02-11T04:17:42;4.10;99.90
31499;DHT22;18115;52.486;13.386;2023-02-11T04:20:09;4.10;99.90
31499;DHT22;18115;52.486;13.386;2023-02-11T04:22:35;4.10;99.90
31499;DHT22;18115;52.486;13.386;2023-02-11T04:25:01;4.10;99.90
31499;DHT22;18115;52.486;13.386;2023-02-11T04:27:26;4.10;99.90
31499;DHT22;18115;52.486;13.386;2023-02-11T04:29:52;4.10;99.90
31499;DHT22;18115;52.486;13.386;2023-02-11T04:32:18;4.10;99.90
31499;DHT22;18115;52.486;13.386;2023-02-11T04:34:44;4.10;99.90
31499;DHT22;18115;52.486;13.386;2023-02-11T04:37:09;4.10;99.90
31499;DHT22;18115;52.486;13.386;2023-02-11T04:39:35;4.40;99.90
31499;DHT22;18115;52.486;13.386;2023-02-11T04:42:01;4.20;99.90
31499;DHT22;18115;52.486;13.386;2023-02-11T04:44:26;4.20;99.90
31499;DHT22;18115;52.486;13.386;2023-02-11T04:46:52;4.10;99.90
31499;DHT22;18115;52.486;13.386;2023-02-11T04:49:18;4.20;99.90
31499;DHT22;18115;52.486;13.386;2023-02-11T04:51:44;4.20;99.90
31499;DHT22;18115;52.486;13.386;2023-02-11T04:54:10;4.20;99.90
31499;DHT22;18115;52.486;13.386;2023-02-11T04:56:36;4.20;99.90
31499;DHT22;18115;52.486;13.386;2023-02-11T04:59:02;4.20;99.90
31499;DHT22;18115;52.486;13.386;2023-02-11T05:01:27;4.10;99.90
31499;DHT22;18115;52.486;13.386;2023-02-11T05:03:53;4.10;99.90
31499;DHT22;18115;52.486;13.386;2023-02-11T05:06:19;4.20;99.90
31499;DHT22;18115;52.486;13.386;2023-02-11T05:08:45;4.20;99.90
31499;DHT22;18115;52.486;13.386;2023-02-11T05:11:16;4.20;99.90
31499;DHT22;18115;52.486;13.386;2023-02-11T05:13:42;4.20;99.90
31499;DHT22;18115;52.486;13.386;2023-02-11T05:16:08;4.20;99.90
31499;DHT22;18115;52.486;13.386;2023-02-11T05:18:36;4.20;99.90
31499;DHT22;18115;52.486;13.386;2023-02-11T05:21:06;4.20;99.90
31499;DHT22;18115;52.486;13.386;2023-02-11T05:23:32;4.20;99.90
31499;DHT22;18115;52.486;13.386;2023-02-11T05:25:58;4.10;99.90
31499;DHT22;18115;52.486;13.386;2023-02-11T05:28:24;4.10;99.90
31499;DHT22;18115;52.486;13.386;2023-02-11T05:30:50;4.10;99.90
31499;DHT22;18115;52.486;13.386;2023-02-11T05:33:16;4.30;99.90
31499;DHT22;18115;52.486;13.386;2023-02-11T05:35:41;4.10;99.90
31499;DHT22;18115;52.486;13.386;2023-02-11T05:38:07;4.10;99.90
31499;DHT22;18115;52.486;13.386;2023-02-11T05:40:32;4.20;99.90
31499;DHT22;18115;52.486;13.386;2023-02-11T05:42:58;4.20;99.90
31499;DHT22;18115;52.486;13.386;2023-02-11T05:45:24;4.20;99.90
31499;DHT22;18115;52.486;13.386;2023-02-11T05:47:49;4.40;99.90
31499;DHT22;18115;52.486;13.386;2023-02-11T05:50:15;4.20;99.90
31499;DHT22;18115;52.486;13.386;2023-02-11T05:52:41;4.20;99.90
31499;DHT22;18115;52.486;13.386;2023-02-11T05:55:06;4.20;99.90
31499;DHT22;18115;52.486;13.386;2023-02-11T05:57:33;4.20;99.90
31499;DHT22;18115;52.486;13.386;2023-02-11T05:59:58;4.50;99.90
31499;DHT22;18115;52.486;13.386;2023-02-11T06:02:24;4.20;99.90
31499;DHT22;18115;52.486;13.386;2023-02-11T06:04:49;4.40;99.90
31499;DHT22;18115;52.486;13.386;2023-02-11T06:07:15;4.20;99.90
31499;DHT22;18115;52.486;13.386;2023-02-11T06:09:41;4.30;99.90
31499;DHT22;18115;52.486;13.386;2023-02-11T06:12:07;4.30;99.90
31499;DHT22;18115;52.486;13.386;2023-02-11T06:14:33;4.40;99.90
31499;DHT22;18115;52.486;13.386;2023-02-11T06:16:59;4.40;99.90
31499;DHT22;18115;52.486;13.386;2023-02-11T06:19:25;5.40;99.90
31499;DHT22;18115;52.486;13.386;2023-02-11T06:21:50;4.40;99.90
31499;DHT22;18115;52.486;13.386;2023-02-11T06:24:16;4.40;99.90
31499;DHT22;18115;52.486;13.386;2023-02-11T06:26:42;4.40;99.90
31499;DHT22;18115;52.486;13.386;2023-02-11T06:29:07;4.40;99.90
31499;DHT22;18115;52.486;13.386;2023-02-11T06:31:33;4.40;99.90
31499;DHT22;18115;52.486;13.386;2023-02-11T06:33:59;4.50;99.90
31499;DHT22;18115;52.486;13.386;2023-02-11T06:36:25;4.60;99.90
31499;DHT22;18115;52.486;13.386;2023-02-11T06:38:51;4.40;99.90
31499;DHT22;18115;52.486;13.386;2023-02-11T06:41:18;4.50;99.90
31499;DHT22;18115;52.486;13.386;2023-02-11T06:43:47;4.70;99.90
31499;DHT22;18115;52.486;13.386;2023-02-11T06:46:13;4.70;99.90
31499;DHT22;18115;52.486;13.386;2023-02-11T06:48:39;4.50;99.90
31499;DHT22;18115;52.486;13.386;2023-02-11T06:51:07;4.50;99.90
31499;DHT22;18115;52.486;13.386;2023-02-11T06:53:39;4.50;99.90
31499;DHT22;18115;52.486;13.386;2023-02-11T06:56:08;4.60;99.90
31499;DHT22;18115;52.486;13.386;2023-02-11T06:58:34;4.60;99.90
31499;DHT22;18115;52.486;13.386;2023-02-11T07:01:07;4.60;99.90
31499;DHT22;18115;52.486;13.386;2023-02-11T07:03:34;4.70;99.90
31499;DHT22;18115;52.486;13.386;2023-02-11T07:06:01;4.70;99.90
31499;DHT22;18115;52.486;13.386;2023-02-11T07:08:27;4.70;99.90
31499;DHT22;18115;52.486;13.386;2023-02-11T07:10:52;4.70;99.90
31499;DHT22;18115;52.486;13.386;2023-02-11T07:13:18;4.70;99.90
31499;DHT22;18115;52.486;13.386;2023-02-11T07:15:44;4.70;99.90
31499;DHT22;18115;52.486;13.386;2023-02-11T07:18:09;4.70;99.90
31499;DHT22;18115;52.486;13.386;2023-02-11T07:20:36;4.70;99.90
31499;DHT22;18115;52.486;13.386;2023-02-11T07:23:03;4.70;99.90
31499;DHT22;18115;52.486;13.386;2023-02-11T07:25:29;4.80;99.90
31499;DHT22;18115;52.486;13.386;2023-02-11T07:27:54;4.70;99.90
31499;DHT22;18115;52.486;13.386;2023-02-11T07:30:20;4.70;99.90
31499;DHT22;18115;52.486;13.386;2023-02-11T07:32:45;4.70;99.90
31499;DHT22;18115;52.486;13.386;2023-02-11T07:35:11;4.70;99.90
31499;DHT22;18115;52.486;13.386;2023-02-11T07:37:37;4.80;99.90
31499;DHT22;18115;52.486;13.386;2023-02-11T07:40:03;4.90;99.90
31499;DHT22;18115;52.486;13.386;2023-02-11T07:42:28;4.90;99.90
31499;DHT22;18115;52.486;13.386;2023-02-11T07:44:54;4.90;99.90
31499;DHT22;18115;52.486;13.386;2023-02-11T07:47:20;5.00;99.90
31499;DHT22;18115;52.486;13.386;2023-02-11T07:49:45;5.00;99.90
31499;DHT22;18115;52.486;13.386;2023-02-11T07:52:12;5.40;99.90
31499;DHT22;18115;52.486;13.386;2023-02-11T07:54:37;5.00;99.90
31499;DHT22;18115;52.486;13.386;2023-02-11T07:57:03;5.10;99.90
31499;DHT22;18115;52.486;13.386;2023-02-11T07:59:28;5.10;99.90
31499;DHT22;18115;52.486;13.386;2023-02-11T08:01:54;5.20;99.90
31499;DHT22;18115;52.486;13.386;2023-02-11T08:04:20;5.10;99.90
31499;DHT22;18115;52.486;13.386;2023-02-11T08:06:45;5.10;99.90
31499;DHT22;18115;52.486;13.386;2023-02-11T08:09:14;5.10;99.90
31499;DHT22;18115;52.486;13.386;2023-02-11T08:11:43;5.20;99.90
31499;DHT22;18115;52.486;13.386;2023-02-11T08:14:09;5.20;99.90
31499;DHT22;18115;52.486;13.386;2023-02-11T08:16:36;5.90;99.90
31499;DHT22;18115;52.486;13.386;2023-02-11T08:19:11;5.20;99.90
31499;DHT22;18115;52.486;13.386;2023-02-11T08:21:38;5.30;99.90
31499;DHT22;18115;52.486;13.386;2023-02-11T08:24:04;5.30;99.90
31499;DHT22;18115;52.486;13.386;2023-02-11T08:26:31;5.30;99.90
31499;DHT22;18115;52.486;13.386;2023-02-11T08:29:00;5.30;99.90
31499;DHT22;18115;52.486;13.386;2023-02-11T08:31:33;5.40;99.90
31499;DHT22;18115;52.486;13.386;2023-02-11T08:33:59;5.50;99.90
31499;DHT22;18115;52.486;13.386;2023-02-11T08:36:29;5.40;99.90
31499;DHT22;18115;52.486;13.386;2023-02-11T08:38:59;6.20;99.90
31499;DHT22;18115;52.486;13.386;2023-02-11T08:41:27;5.40;99.90
31499;DHT22;18115;52.486;13.386;2023-02-11T08:43:53;5.40;99.90
31499;DHT22;18115;52.486;13.386;2023-02-11T08:46:19;5.40;99.90
31499;DHT22;18115;52.486;13.386;2023-02-11T08:48:46;5.40;99.90
31499;DHT22;18115;52.486;13.386;2023-02-11T08:51:23;5.40;99.90
31499;DHT22;18115;52.486;13.386;2023-02-11T08:53:50;5.40;99.90
31499;DHT22;18115;52.486;13.386;2023-02-11T08:56:17;5.50;99.90
31499;DHT22;18115;52.486;13.386;2023-02-11T08:58:44;5.40;99.90
31499;DHT22;18115;52.486;13.386;2023-02-11T09:01:15;5.40;99.90
31499;DHT22;18115;52.486;13.386;2023-02-11T09:03:41;5.40;99.90
31499;DHT22;18115;52.486;13.386;2023-02-11T09:06:08;5.40;99.90
31499;DHT22;18115;52.486;13.386;2023-02-11T09:08:35;5.50;99.90
31499;DHT22;18115;52.486;13.386;2023-02-11T09:11:01;5.10;99.90
31499;DHT22;18115;52.486;13.386;2023-02-11T09:13:28;5.50;99.90
31499;DHT22;18115;52.486;13.386;2023-02-11T09:15:54;5.50;99.90
31499;DHT22;18115;52.486;13.386;2023-02-11T09:18:19;5.50;99.90
31499;DHT22;18115;52.486;13.386;2023-02-11T09:20:45;5.50;99.90
31499;DHT22;18115;52.486;13.386;2023-02-11T09:23:10;5.50;99.90
31499;DHT22;18115;52.486;13.386;2023-02-11T09:25:40;5.60;99.90
31499;DHT22;18115;52.486;13.386;2023-02-11T09:28:06;5.60;99.90
31499;DHT22;18115;52.486;13.386;2023-02-11T09:30:32;5.60;99.90
31499;DHT22;18115;52.486;13.386;2023-02-11T09:32:58;5.60;99.90
31499;DHT22;18115;52.486;13.386;2023-02-11T09:35:24;5.70;99.90
31499;DHT22;18115;52.486;13.386;2023-02-11T09:37:49;5.60;99.90
31499;DHT22;18115;52.486;13.386;2023-02-11T09:40:15;5.60;99.90
31499;DHT22;18115;52.486;13.386;2023-02-11T09:43:04;5.70;99.90
31499;DHT22;18115;52.486;13.386;2023-02-11T09:45:30;5.80;99.90
31499;DHT22;18115;52.486;13.386;2023-02-11T09:48:16;5.70;99.90
31499;DHT22;18115;52.486;13.386;2023-02-11T09:50:49;5.70;99.90
31499;DHT22;18115;52.486;13.386;2023-02-11T09:53:27;5.80;99.90
31499;DHT22;18115;52.486;13.386;2023-02-11T09:55:58;5.80;99.90
31499;DHT22;18115;52.486;13.386;2023-02-11T09:58:33;5.90;99.90
31499;DHT22;18115;52.486;13.386;2023-02-11T10:07:39;6.00;99.90
31499;DHT22;18115;52.486;13.386;2023-02-11T10:16:10;6.00;99.90
31499;DHT22;18115;52.486;13.386;2023-02-11T10:18:44;6.00;99.90
31499;DHT22;18115;52.486;13.386;2023-02-11T10:23:42;6.00;99.90
31499;DHT22;18115;52.486;13.386;2023-02-11T10:26:15;5.90;99.90
31499;DHT22;18115;52.486;13.386;2023-02-11T10:28:44;5.90;99.90
31499;DHT22;18115;52.486;13.386;2023-02-11T10:31:33;5.90;99.90
31499;DHT22;18115;52.486;13.386;2023-02-11T10:34:06;5.90;99.90
31499;DHT22;18115;52.486;13.386;2023-02-11T10:36:40;5.90;99.90
31499;DHT22;18115;52.486;13.386;2023-02-11T10:41:53;5.90;99.90
31499;DHT22;18115;52.486;13.386;2023-02-11T10:46:59;5.90;99.90
31499;DHT22;18115;52.486;13.386;2023-02-11T10:49:40;5.90;99.90
31499;DHT22;18115;52.486;13.386;2023-02-11T10:52:13;5.90;99.90
31499;DHT22;18115;52.486;13.386;2023-02-11T10:54:39;6.00;99.90
31499;DHT22;18115;52.486;13.386;2023-02-11T10:57:05;5.90;99.90
31499;DHT22;18115;52.486;13.386;2023-02-11T10:59:36;5.90;99.90
31499;DHT22;18115;52.486;13.386;2023-02-11T11:02:32;6.20;99.90
31499;DHT22;18115;52.486;13.386;2023-02-11T11:05:20;6.00;99.90
31499;DHT22;18115;52.486;13.386;2023-02-11T11:08:07;6.20;99.90
31499;DHT22;18115;52.486;13.386;2023-02-11T11:10:38;6.00;99.90
31499;DHT22;18115;52.486;13.386;2023-02-11T11:13:27;6.10;99.90
31499;DHT22;18115;52.486;13.386;2023-02-11T11:18:37;6.00;99.90
31499;DHT22;18115;52.486;13.386;2023-02-11T11:21:31;6.00;99.90
31499;DHT22;18115;52.486;13.386;2023-02-11T11:23:59;6.10;99.90
31499;DHT22;18115;52.486;13.386;2023-02-11T11:26:37;6.10;99.90
31499;DHT22;18115;52.486;13.386;2023-02-11T11:29:09;6.10;99.90
31499;DHT22;18115;52.486;13.386;2023-02-11T11:31:49;6.10;99.90
31499;DHT22;18115;52.486;13.386;2023-02-11T11:36:58;6.10;99.90
31499;DHT22;18115;52.486;13.386;2023-02-11T11:39:28;6.10;99.90
31499;DHT22;18115;52.486;13.386;2023-02-11T11:42:01;6.10;99.90
31499;DHT22;18115;52.486;13.386;2023-02-11T11:44:36;6.10;99.90
31499;DHT22;18115;52.486;13.386;2023-02-11T11:57:53;6.20;99.90
31499;DHT22;18115;52.486;13.386;2023-02-11T12:03:25;6.20;99.90
31499;DHT22;18115;52.486;13.386;2023-02-11T12:08:53;6.30;99.90
31499;DHT22;18115;52.486;13.386;2023-02-11T12:25:24;8.50;99.90
31499;DHT22;18115;52.486;13.386;2023-02-11T12:36:09;6.60;99.90
31499;DHT22;18115;52.486;13.386;2023-02-11T12:42:13;6.60;99.90
31499;DHT22;18115;52.486;13.386;2023-02-11T12:45:08;6.60;99.90
31499;DHT22;18115;52.486;13.386;2023-02-11T12:48:29;6.60;99.90
31499;DHT22;18115;52.486;13.386;2023-02-11T12:55:33;6.60;99.90
31499;DHT22;18115;52.486;13.386;2023-02-11T12:58:01;6.70;99.90
31499;DHT22;18115;52.486;13.386;2023-02-11T13:03:16;6.60;99.90
31499;DHT22;18115;52.486;13.386;2023-02-11T13:05:46;6.70;99.90
31499;DHT22;18115;52.486;13.386;2023-02-11T13:08:30;6.60;99.90
31499;DHT22;18115;52.486;13.386;2023-02-11T13:11:22;6.60;99.90
31499;DHT22;18115;52.486;13.386;2023-02-11T13:14:15;6.60;99.90
31499;DHT22;18115;52.486;13.386;2023-02-11T13:16:47;6.60;99.90
31499;DHT22;18115;52.486;13.386;2023-02-11T13:19:41;6.60;99.90
31499;DHT22;18115;52.486;13.386;2023-02-11T13:36:23;6.60;99.90
31499;DHT22;18115;52.486;13.386;2023-02-11T13:38:30;6.60;99.90
31499;DHT22;18115;52.486;13.386;2023-02-11T13:40:58;6.60;99.90
31499;DHT22;18115;52.486;13.386;2023-02-11T13:43:26;6.60;99.90
31499;DHT22;18115;52.486;13.386;2023-02-11T13:46:06;6.60;99.90
31499;DHT22;18115;52.486;13.386;2023-02-11T13:48:37;6.60;99.90
31499;DHT22;18115;52.486;13.386;2023-02-11T13:51:06;6.60;99.90
31499;DHT22;18115;52.486;13.386;2023-02-11T13:53:54;6.60;99.90
31499;DHT22;18115;52.486;13.386;2023-02-11T13:56:38;6.60;99.90
31499;DHT22;18115;52.486;13.386;2023-02-11T13:59:49;6.60;99.90
31499;DHT22;18115;52.486;13.386;2023-02-11T14:02:19;6.60;99.90
31499;DHT22;18115;52.486;13.386;2023-02-11T14:10:55;6.70;99.90
31499;DHT22;18115;52.486;13.386;2023-02-11T14:13:30;6.70;99.90
31499;DHT22;18115;52.486;13.386;2023-02-11T14:21:13;6.60;99.90
31499;DHT22;18115;52.486;13.386;2023-02-11T14:23:40;6.70;99.90
31499;DHT22;18115;52.486;13.386;2023-02-11T14:26:22;6.70;99.90
31499;DHT22;18115;52.486;13.386;2023-02-11T14:29:02;6.70;99.90
31499;DHT22;18115;52.486;13.386;2023-02-11T14:31:53;6.80;99.90
31499;DHT22;18115;52.486;13.386;2023-02-11T14:40:09;6.60;99.90
31499;DHT22;18115;52.486;13.386;2023-02-11T14:42:39;6.70;99.90
31499;DHT22;18115;52.486;13.386;2023-02-11T14:45:07;6.70;99.90
31499;DHT22;18115;52.486;13.386;2023-02-11T14:50:51;6.70;99.90
31499;DHT22;18115;52.486;13.386;2023-02-11T14:53:21;6.70;99.90
31499;DHT22;18115;52.486;13.386;2023-02-11T14:55:49;6.70;99.90
31499;DHT22;18115;52.486;13.386;2023-02-11T14:58:21;6.70;99.90
31499;DHT22;18115;52.486;13.386;2023-02-11T15:06:16;6.80;99.90
31499;DHT22;18115;52.486;13.386;2023-02-11T15:08:49;6.70;99.90
31499;DHT22;18115;52.486;13.386;2023-02-11T15:11:18;6.70;99.90
31499;DHT22;18115;52.486;13.386;2023-02-11T15:13:44;6.70;99.90
31499;DHT22;18115;52.486;13.386;2023-02-11T15:16:17;6.70;99.90
31499;DHT22;18115;52.486;13.386;2023-02-11T15:18:48;6.80;99.90
31499;DHT22;18115;52.486;13.386;2023-02-11T15:21:27;6.70;99.90
31499;DHT22;18115;52.486;13.386;2023-02-11T15:24:17;6.70;99.90
31499;DHT22;18115;52.486;13.386;2023-02-11T15:26:54;6.70;99.90
31499;DHT22;18115;52.486;13.386;2023-02-11T15:29:19;6.70;99.90
31499;DHT22;18115;52.486;13.386;2023-02-11T15:32:05;6.80;99.90
31499;DHT22;18115;52.486;13.386;2023-02-11T15:34:31;6.70;99.90
31499;DHT22;18115;52.486;13.386;2023-02-11T15:36:57;6.80;99.90
31499;DHT22;18115;52.486;13.386;2023-02-11T15:39:36;6.70;99.90
31499;DHT22;18115;52.486;13.386;2023-02-11T15:42:16;6.90;99.90
31499;DHT22;18115;52.486;13.386;2023-02-11T15:44:42;4.80;99.90
31499;DHT22;18115;52.486;13.386;2023-02-11T15:47:12;6.80;99.90
31499;DHT22;18115;52.486;13.386;2023-02-11T15:49:43;8.80;99.90
31499;DHT22;18115;52.486;13.386;2023-02-11T15:52:09;6.70;99.90
31499;DHT22;18115;52.486;13.386;2023-02-11T15:54:36;6.80;99.90
31499;DHT22;18115;52.486;13.386;2023-02-11T15:57:04;6.70;99.90
31499;DHT22;18115;52.486;13.386;2023-02-11T15:59:38;6.80;99.90
31499;DHT22;18115;52.486;13.386;2023-02-11T16:02:08;6.80;99.90
31499;DHT22;18115;52.486;13.386;2023-02-11T16:04:35;6.80;99.90
31499;DHT22;18115;52.486;13.386;2023-02-11T16:07:00;6.80;99.90
31499;DHT22;18115;52.486;13.386;2023-02-11T16:09:32;6.80;99.90
31499;DHT22;18115;52.486;13.386;2023-02-11T16:12:16;6.80;99.90
31499;DHT22;18115;52.486;13.386;2023-02-11T16:14:45;6.80;99.90
31499;DHT22;18115;52.486;13.386;2023-02-11T16:19:48;6.80;99.90
31499;DHT22;18115;52.486;13.386;2023-02-11T16:22:18;6.80;99.90
31499;DHT22;18115;52.486;13.386;2023-02-11T16:24:46;6.80;99.90
31499;DHT22;18115;52.486;13.386;2023-02-11T16:27:37;6.80;99.90
31499;DHT22;18115;52.486;13.386;2023-02-11T16:30:04;6.80;99.90
31499;DHT22;18115;52.486;13.386;2023-02-11T16:32:30;6.80;99.90
31499;DHT22;18115;52.486;13.386;2023-02-11T16:34:58;6.80;99.90
31499;DHT22;18115;52.486;13.386;2023-02-11T16:37:25;6.80;99.90
31499;DHT22;18115;52.486;13.386;2023-02-11T16:39:55;6.80;99.90
31499;DHT22;18115;52.486;13.386;2023-02-11T16:42:20;7.00;99.90
31499;DHT22;18115;52.486;13.386;2023-02-11T16:44:46;6.80;99.90
31499;DHT22;18115;52.486;13.386;2023-02-11T16:47:26;6.80;99.90
31499;DHT22;18115;52.486;13.386;2023-02-11T16:49:53;6.80;99.90
31499;DHT22;18115;52.486;13.386;2023-02-11T16:52:20;6.90;99.90
31499;DHT22;18115;52.486;13.386;2023-02-11T16:54:46;6.90;99.90
31499;DHT22;18115;52.486;13.386;2023-02-11T16:57:20;6.80;99.90
31499;DHT22;18115;52.486;13.386;2023-02-11T16:59:46;7.10;99.90
31499;DHT22;18115;52.486;13.386;2023-02-11T17:02:15;6.80;99.90
31499;DHT22;18115;52.486;13.386;2023-02-11T17:04:42;6.90;99.90
31499;DHT22;18115;52.486;13.386;2023-02-11T17:07:08;6.80;99.90
31499;DHT22;18115;52.486;13.386;2023-02-11T17:09:34;6.80;99.90
31499;DHT22;18115;52.486;13.386;2023-02-11T17:12:00;6.90;99.90
31499;DHT22;18115;52.486;13.386;2023-02-11T17:14:25;6.80;99.90
31499;DHT22;18115;52.486;13.386;2023-02-11T17:16:51;7.00;99.90
31499;DHT22;18115;52.486;13.386;2023-02-11T17:19:18;6.90;99.90
31499;DHT22;18115;52.486;13.386;2023-02-11T17:21:47;6.90;99.90
31499;DHT22;18115;52.486;13.386;2023-02-11T17:24:13;6.90;99.90
31499;DHT22;18115;52.486;13.386;2023-02-11T17:26:40;6.90;99.90
31499;DHT22;18115;52.486;13.386;2023-02-11T17:29:08;7.00;99.90
31499;DHT22;18115;52.486;13.386;2023-02-11T17:31:34;6.90;99.90
31499;DHT22;18115;52.486;13.386;2023-02-11T17:34:01;6.90;99.90
31499;DHT22;18115;52.486;13.386;2023-02-11T17:36:27;6.90;99.90
31499;DHT22;18115;52.486;13.386;2023-02-11T17:38:56;6.90;99.90
31499;DHT22;18115;52.486;13.386;2023-02-11T17:41:22;6.90;99.90
31499;DHT22;18115;52.486;13.386;2023-02-11T17:43:48;6.90;99.90
31499;DHT22;18115;52.486;13.386;2023-02-11T17:46:14;7.00;99.90
31499;DHT22;18115;52.486;13.386;2023-02-11T17:48:40;7.10;99.90
31499;DHT22;18115;52.486;13.386;2023-02-11T17:51:23;7.00;99.90
31499;DHT22;18115;52.486;13.386;2023-02-11T17:53:50;6.90;99.90
31499;DHT22;18115;52.486;13.386;2023-02-11T17:56:16;6.90;99.90
31499;DHT22;18115;52.486;13.386;2023-02-11T17:58:41;6.90;99.90
31499;DHT22;18115;52.486;13.386;2023-02-11T18:01:07;6.90;99.90
31499;DHT22;18115;52.486;13.386;2023-02-11T18:03:33;6.90;99.90
31499;DHT22;18115;52.486;13.386;2023-02-11T18:05:59;6.90;99.90
31499;DHT22;18115;52.486;13.386;2023-02-11T18:08:26;6.90;99.90
31499;DHT22;18115;52.486;13.386;2023-02-11T18:10:51;6.90;99.90
31499;DHT22;18115;52.486;13.386;2023-02-11T18:13:17;6.90;99.90
31499;DHT22;18115;52.486;13.386;2023-02-11T18:15:43;6.90;99.90
31499;DHT22;18115;52.486;13.386;2023-02-11T18:18:09;6.90;99.90
31499;DHT22;18115;52.486;13.386;2023-02-11T18:20:35;7.00;99.90
31499;DHT22;18115;52.486;13.386;2023-02-11T18:23:01;7.00;99.90